createdAt,value
2023-01-26T00:00:07.033Z,10.57
2023-01-26T00:02:36.656Z,10.56
2023-01-26T00:05:05.107Z,10.54
2023-01-26T00:07:33.236Z,10.54
2023-01-26T00:10:01.516Z,10.54
2023-01-26T00:12:31.854Z,10.34
2023-01-26T00:15:00.171Z,10.28
2023-01-26T00:17:28.693Z,10.24
2023-01-26T00:20:00.118Z,10.21
2023-01-26T00:22:28.949Z,10.15
2023-01-26T00:24:57.402Z,10.10
2023-01-26T00:27:25.712Z,10.03
2023-01-26T00:29:54.105Z,10.07
2023-01-26T00:32:22.891Z,10.05
2023-01-26T00:34:51.273Z,10.07
2023-01-26T00:37:21.009Z,10.06
2023-01-26T00:39:49.294Z,9.98
2023-01-26T00:42:18.168Z,9.97
2023-01-26T00:44:46.492Z,9.91
2023-01-26T00:47:15.666Z,9.90
2023-01-26T00:49:44.379Z,9.88
2023-01-26T00:52:13.000Z,9.81
2023-01-26T00:54:43.622Z,9.73
2023-01-26T00:57:11.977Z,9.72
2023-01-26T00:59:40.269Z,9.65
2023-01-26T01:02:08.559Z,9.56
2023-01-26T01:04:36.998Z,9.50
2023-01-26T01:07:05.308Z,9.43
2023-01-26T01:09:34.487Z,9.33
2023-01-26T01:12:04.259Z,9.31
2023-01-26T01:14:32.585Z,9.26
2023-01-26T01:17:01.290Z,9.22
2023-01-26T01:19:30.495Z,9.20
2023-01-26T01:21:58.762Z,9.14
2023-01-26T01:24:27.070Z,9.16
2023-01-26T01:26:55.379Z,9.12
2023-01-26T01:29:25.135Z,9.13
2023-01-26T01:31:53.417Z,9.13
2023-01-26T01:34:21.917Z,9.13
2023-01-26T01:36:50.340Z,9.09
2023-01-26T01:39:18.582Z,9.07
2023-01-26T01:41:47.004Z,9.06
2023-01-26T01:44:21.256Z,9.08
2023-01-26T01:46:55.078Z,9.07
2023-01-26T01:49:29.239Z,9.07
2023-01-26T01:52:02.930Z,9.09
2023-01-26T01:54:35.187Z,9.08
2023-01-26T01:57:15.917Z,9.04
2023-01-26T01:59:47.783Z,9.07
2023-01-26T02:02:17.704Z,9.06
2023-01-26T02:04:46.542Z,9.01
2023-01-26T02:07:15.423Z,8.95
2023-01-26T02:10:02.410Z,8.95
2023-01-26T02:12:34.148Z,8.84
2023-01-26T02:15:03.072Z,8.84
2023-01-26T02:17:32.940Z,8.83
2023-01-26T02:20:06.088Z,8.86
2023-01-26T02:22:42.393Z,8.90
2023-01-26T02:25:21.179Z,8.91
2023-01-26T02:27:52.442Z,8.90
2023-01-26T02:30:23.477Z,8.88
2023-01-26T02:32:52.319Z,8.92
2023-01-26T02:35:21.412Z,8.91
2023-01-26T02:37:49.907Z,8.89
2023-01-26T02:40:37.480Z,8.89
2023-01-26T02:43:06.606Z,8.90
2023-01-26T02:45:35.923Z,8.90
2023-01-26T02:48:06.665Z,8.88
2023-01-26T02:50:35.316Z,8.86
2023-01-26T02:53:04.625Z,8.86
2023-01-26T02:55:32.094Z,8.93
2023-01-26T02:58:01.912Z,8.88
2023-01-26T03:00:37.499Z,8.90
2023-01-26T03:03:13.518Z,8.95
2023-01-26T03:05:42.120Z,8.89
2023-01-26T03:08:10.582Z,8.84
2023-01-26T03:10:41.417Z,8.83
2023-01-26T03:13:10.322Z,8.86
2023-01-26T03:15:48.189Z,8.83
2023-01-26T03:18:36.072Z,8.82
2023-01-26T03:21:23.739Z,8.77
2023-01-26T03:24:10.418Z,8.75
2023-01-26T03:26:57.964Z,8.66
2023-01-26T03:29:27.569Z,8.63
2023-01-26T03:32:00.646Z,8.58
2023-01-26T03:34:30.052Z,8.51
2023-01-26T03:36:59.384Z,8.41
2023-01-26T03:39:50.282Z,8.37
2023-01-26T03:42:36.814Z,8.31
2023-01-26T03:45:23.524Z,8.25
2023-01-26T03:48:11.101Z,8.21
2023-01-26T03:50:56.964Z,8.26
2023-01-26T03:53:43.388Z,8.24
2023-01-26T03:56:18.460Z,8.09
2023-01-26T03:58:49.412Z,8.04
2023-01-26T04:01:20.215Z,8.01
2023-01-26T04:04:11.908Z,8.06
2023-01-26T04:06:59.477Z,8.09
2023-01-26T04:09:28.031Z,8.12
2023-01-26T04:11:57.104Z,8.16
2023-01-26T04:14:50.132Z,8.16
2023-01-26T04:17:41.569Z,8.18
2023-01-26T04:20:30.260Z,8.19
2023-01-26T04:22:59.392Z,8.23
2023-01-26T04:25:28.396Z,8.25
2023-01-26T04:27:58.844Z,8.26
2023-01-26T04:30:27.673Z,8.25
2023-01-26T04:32:56.899Z,8.29
2023-01-26T04:35:27.238Z,8.28
2023-01-26T04:37:55.874Z,8.32
2023-01-26T04:40:24.994Z,8.27
2023-01-26T04:42:53.466Z,8.23
2023-01-26T04:45:21.967Z,8.22
2023-01-26T04:47:52.158Z,8.17
2023-01-26T04:50:21.160Z,8.09
2023-01-26T04:52:50.987Z,7.97
2023-01-26T04:55:19.774Z,7.89
2023-01-26T04:57:48.456Z,7.88
2023-01-26T05:00:17.240Z,7.82
2023-01-26T05:02:45.703Z,7.80
2023-01-26T05:05:14.921Z,7.78
2023-01-26T05:07:43.771Z,7.76
2023-01-26T05:10:15.981Z,7.78
2023-01-26T05:13:18.780Z,7.72
2023-01-26T05:16:06.717Z,7.73
2023-01-26T05:19:01.465Z,7.86
2023-01-26T05:21:48.702Z,7.93
2023-01-26T05:24:17.155Z,8.05
2023-01-26T05:27:25.036Z,8.07
2023-01-26T05:30:00.592Z,8.14
2023-01-26T05:32:30.258Z,8.21
2023-01-26T05:34:59.729Z,8.25
2023-01-26T05:37:29.215Z,8.22
2023-01-26T05:39:58.233Z,8.24
2023-01-26T05:42:29.407Z,8.23
2023-01-26T05:45:17.670Z,8.19
2023-01-26T05:47:47.376Z,8.18
2023-01-26T05:50:16.915Z,8.13
2023-01-26T05:52:46.711Z,8.09
2023-01-26T05:55:15.999Z,8.11
2023-01-26T05:57:46.844Z,8.14
2023-01-26T06:00:16.250Z,8.12
2023-01-26T06:02:53.146Z,8.10
2023-01-26T06:05:21.804Z,8.08
2023-01-26T06:07:51.600Z,8.10
2023-01-26T06:10:26.640Z,8.19
2023-01-26T06:13:21.238Z,8.20
2023-01-26T06:15:54.848Z,8.24
2023-01-26T06:18:27.461Z,8.22
2023-01-26T06:21:01.600Z,8.23
2023-01-26T06:23:31.147Z,8.25
2023-01-26T06:26:03.356Z,8.25
2023-01-26T06:28:33.525Z,8.23
2023-01-26T06:31:02.831Z,8.22
2023-01-26T06:33:32.533Z,8.21
2023-01-26T06:36:03.195Z,8.22
2023-01-26T06:38:31.863Z,8.21
2023-01-26T06:41:03.245Z,8.21
2023-01-26T06:43:35.064Z,8.17
2023-01-26T06:46:04.305Z,8.22
2023-01-26T06:48:37.025Z,8.19
2023-01-26T06:51:26.921Z,8.19
2023-01-26T06:53:57.417Z,8.21
2023-01-26T06:56:49.184Z,8.22
2023-01-26T06:59:48.237Z,8.21
2023-01-26T07:02:37.595Z,8.19
2023-01-26T07:05:07.180Z,8.27
2023-01-26T07:07:35.609Z,8.28
2023-01-26T07:10:07.170Z,8.30
2023-01-26T07:12:43.036Z,8.29
2023-01-26T07:15:14.111Z,8.27
2023-01-26T07:17:42.687Z,8.26
2023-01-26T07:20:12.537Z,8.29
2023-01-26T07:22:41.247Z,8.33
2023-01-26T07:25:09.891Z,8.29
2023-01-26T07:27:38.225Z,8.17
2023-01-26T07:30:07.653Z,8.15
2023-01-26T07:32:37.529Z,8.14
2023-01-26T07:35:06.568Z,8.10
2023-01-26T07:37:34.930Z,8.14
2023-01-26T07:40:03.838Z,8.18
2023-01-26T07:42:32.209Z,8.19
2023-01-26T07:45:19.069Z,8.14
2023-01-26T07:47:48.814Z,8.11
2023-01-26T07:50:18.485Z,8.09
2023-01-26T07:52:46.788Z,8.03
2023-01-26T07:55:15.128Z,8.04
2023-01-26T07:57:43.713Z,8.06
2023-01-26T08:00:13.356Z,8.11
2023-01-26T08:02:41.906Z,8.13
2023-01-26T08:05:12.011Z,8.08
2023-01-26T08:07:40.573Z,8.08
2023-01-26T08:10:11.066Z,8.06
2023-01-26T08:12:41.166Z,8.06
2023-01-26T08:15:10.764Z,8.09
2023-01-26T08:17:39.027Z,8.12
2023-01-26T08:20:08.627Z,8.16
2023-01-26T08:22:38.562Z,8.19
2023-01-26T08:25:07.890Z,8.17
2023-01-26T08:27:36.332Z,8.17
2023-01-26T08:30:04.960Z,8.21
2023-01-26T08:32:33.379Z,8.25
2023-01-26T08:35:01.665Z,8.24
2023-01-26T08:37:30.098Z,8.23
2023-01-26T08:39:59.783Z,8.26
2023-01-26T08:42:28.258Z,8.37
2023-01-26T08:44:56.635Z,8.47
2023-01-26T08:47:25.011Z,8.42
2023-01-26T08:49:53.393Z,8.44
2023-01-26T08:52:22.051Z,8.45
2023-01-26T08:54:50.300Z,8.55
2023-01-26T08:57:20.151Z,8.63
2023-01-26T08:59:48.541Z,8.78
2023-01-26T09:02:16.911Z,9.20
2023-01-26T09:04:45.412Z,9.58
2023-01-26T09:07:13.804Z,9.78
2023-01-26T09:09:42.238Z,9.79
2023-01-26T09:12:10.654Z,9.96
2023-01-26T09:14:41.311Z,10.77
2023-01-26T09:17:09.568Z,11.46
2023-01-26T09:19:37.874Z,11.75
2023-01-26T09:22:06.247Z,12.12
2023-01-26T09:24:34.544Z,11.74
2023-01-26T09:27:02.874Z,11.13
2023-01-26T09:29:31.147Z,11.08
2023-01-26T09:32:00.996Z,11.40
2023-01-26T09:34:29.522Z,12.07
2023-01-26T09:36:58.458Z,12.96
2023-01-26T09:39:26.829Z,13.03
2023-01-26T09:42:11.002Z,13.78
2023-01-26T09:44:47.485Z,14.66
2023-01-26T09:47:27.162Z,15.41
2023-01-26T09:50:08.439Z,15.71
2023-01-26T09:52:45.363Z,15.68
2023-01-26T09:55:18.607Z,15.70
2023-01-26T09:57:51.842Z,15.70
2023-01-26T10:00:24.091Z,15.35
2023-01-26T10:03:04.999Z,15.42
2023-01-26T10:05:43.539Z,15.89
2023-01-26T10:08:14.472Z,16.33
2023-01-26T10:10:47.260Z,16.87
2023-01-26T10:13:17.443Z,16.89
2023-01-26T10:15:49.670Z,17.12
2023-01-26T10:18:25.413Z,16.60
2023-01-26T10:20:57.055Z,16.17
2023-01-26T10:23:28.704Z,16.15
2023-01-26T10:26:04.028Z,15.84
2023-01-26T10:28:35.514Z,16.00
2023-01-26T10:31:05.518Z,16.21
2023-01-26T10:33:37.352Z,16.19
2023-01-26T10:36:08.613Z,16.16
2023-01-26T10:38:45.326Z,15.81
2023-01-26T10:41:24.821Z,15.77
2023-01-26T10:43:55.447Z,15.60
2023-01-26T10:46:30.556Z,15.34
2023-01-26T10:49:02.335Z,15.25
2023-01-26T10:51:33.292Z,15.15
2023-01-26T10:54:23.775Z,15.31
2023-01-26T10:56:55.405Z,15.18
2023-01-26T10:59:32.448Z,15.03
2023-01-26T11:02:03.487Z,14.78
2023-01-26T11:04:33.289Z,13.81
2023-01-26T11:07:26.594Z,13.46
2023-01-26T11:09:55.538Z,13.36
2023-01-26T11:12:26.798Z,13.29
2023-01-26T11:15:04.236Z,12.84
2023-01-26T11:17:39.417Z,13.03
2023-01-26T11:20:27.791Z,13.27
2023-01-26T11:23:05.910Z,13.31
2023-01-26T11:25:43.683Z,13.09
2023-01-26T11:28:31.981Z,12.70
2023-01-26T11:31:15.673Z,12.46
2023-01-26T11:33:56.508Z,12.47
2023-01-26T11:36:37.373Z,12.23
2023-01-26T11:39:15.858Z,12.18
2023-01-26T11:41:56.921Z,12.07
2023-01-26T11:44:59.693Z,11.91
2023-01-26T11:47:42.488Z,11.80
2023-01-26T11:50:27.717Z,11.66
2023-01-26T11:53:25.355Z,11.69
2023-01-26T11:56:05.731Z,11.86
2023-01-26T11:58:39.457Z,12.05
2023-01-26T12:01:14.679Z,12.11
2023-01-26T12:03:47.712Z,12.22
2023-01-26T12:06:19.499Z,12.18
2023-01-26T12:08:53.474Z,12.03
2023-01-26T12:11:27.575Z,11.93
2023-01-26T12:14:16.597Z,11.81
2023-01-26T12:16:59.998Z,11.59
2023-01-26T12:19:45.782Z,11.53
2023-01-26T12:22:21.116Z,11.43
2023-01-26T12:25:29.061Z,11.38
2023-01-26T12:27:47.911Z,11.46
2023-01-26T12:30:35.587Z,11.59
2023-01-26T12:33:04.094Z,11.68
2023-01-26T12:35:52.371Z,11.59
2023-01-26T12:38:27.235Z,11.37
2023-01-26T12:41:11.925Z,11.29
2023-01-26T12:43:53.294Z,11.17
2023-01-26T12:46:23.422Z,11.10
2023-01-26T12:48:57.519Z,10.92
2023-01-26T12:51:31.139Z,10.89
2023-01-26T12:54:03.699Z,10.78
2023-01-26T12:56:40.857Z,10.66
2023-01-26T12:59:39.168Z,10.60
2023-01-26T13:02:21.247Z,10.53
2023-01-26T13:04:52.299Z,10.47
2023-01-26T13:07:37.882Z,10.40
2023-01-26T13:10:25.906Z,10.29
2023-01-26T13:12:57.901Z,10.26
2023-01-26T13:15:27.891Z,10.16
2023-01-26T13:18:01.257Z,10.17
2023-01-26T13:20:51.108Z,10.15
2023-01-26T13:23:55.484Z,10.11
2023-01-26T13:26:52.160Z,10.11
2023-01-26T13:29:33.124Z,10.12
2023-01-26T13:32:23.029Z,10.15
2023-01-26T13:34:57.643Z,10.17
2023-01-26T13:37:34.752Z,10.25
2023-01-26T13:40:07.432Z,10.31
2023-01-26T13:42:45.222Z,10.28
2023-01-26T13:45:23.627Z,10.37
2023-01-26T13:47:54.473Z,10.49
2023-01-26T13:50:24.564Z,10.54
2023-01-26T13:52:53.001Z,10.53
2023-01-26T13:55:25.985Z,10.48
2023-01-26T13:58:12.282Z,10.44
2023-01-26T14:00:42.235Z,10.31
2023-01-26T14:03:23.019Z,10.20
2023-01-26T14:05:57.356Z,10.17
2023-01-26T14:08:26.231Z,10.10
2023-01-26T14:10:54.912Z,10.09
2023-01-26T14:13:29.012Z,10.05
2023-01-26T14:16:01.822Z,10.05
2023-01-26T14:18:30.482Z,10.04
2023-01-26T14:21:06.614Z,9.97
2023-01-26T14:23:36.980Z,9.92
2023-01-26T14:26:07.893Z,9.95
2023-01-26T14:28:43.710Z,9.98
2023-01-26T14:31:20.066Z,10.06
2023-01-26T14:33:53.425Z,10.11
2023-01-26T14:36:22.443Z,10.12
2023-01-26T14:38:52.941Z,10.06
2023-01-26T14:41:25.075Z,10.08
2023-01-26T14:44:00.235Z,10.08
2023-01-26T14:46:39.244Z,10.09
2023-01-26T14:49:11.080Z,10.07
2023-01-26T14:51:40.073Z,10.05
2023-01-26T14:54:17.771Z,9.99
2023-01-26T14:56:49.161Z,9.98
2023-01-26T14:59:23.567Z,9.95
2023-01-26T15:02:04.717Z,9.88
2023-01-26T15:04:39.242Z,9.86
2023-01-26T15:07:25.776Z,9.84
2023-01-26T15:09:54.352Z,9.77
2023-01-26T15:12:22.970Z,9.75
2023-01-26T15:14:52.711Z,9.76
2023-01-26T15:17:38.494Z,9.75
2023-01-26T15:20:27.631Z,9.76
2023-01-26T15:22:56.192Z,9.70
2023-01-26T15:25:27.360Z,9.71
2023-01-26T15:27:58.732Z,9.72
2023-01-26T15:30:30.346Z,9.72
2023-01-26T15:33:00.717Z,9.76
2023-01-26T15:35:32.093Z,9.71
2023-01-26T15:38:05.701Z,9.69
2023-01-26T15:40:34.289Z,9.68
2023-01-26T15:43:13.798Z,9.66
2023-01-26T15:45:44.708Z,9.60
2023-01-26T15:48:14.654Z,9.52
2023-01-26T15:50:43.223Z,9.53
2023-01-26T15:53:15.397Z,9.48
2023-01-26T15:55:45.428Z,9.47
2023-01-26T15:58:13.844Z,9.45
2023-01-26T16:00:42.251Z,9.44
2023-01-26T16:03:19.962Z,9.41
2023-01-26T16:05:49.336Z,9.43
2023-01-26T16:08:18.106Z,9.36
2023-01-26T16:10:47.597Z,9.32
2023-01-26T16:13:19.152Z,9.28
2023-01-26T16:15:49.181Z,9.28
2023-01-26T16:18:19.449Z,9.25
2023-01-26T16:20:49.635Z,9.28
2023-01-26T16:23:21.081Z,9.28
2023-01-26T16:25:50.559Z,9.24
2023-01-26T16:28:19.515Z,9.21
2023-01-26T16:30:49.645Z,9.22
2023-01-26T16:33:22.269Z,9.20
2023-01-26T16:35:50.463Z,9.09
2023-01-26T16:38:18.815Z,9.05
2023-01-26T16:40:49.952Z,9.06
2023-01-26T16:43:23.660Z,9.06
2023-01-26T16:45:52.640Z,9.05
2023-01-26T16:48:23.614Z,9.07
2023-01-26T16:50:53.821Z,9.09
2023-01-26T16:53:26.986Z,9.04
2023-01-26T16:55:56.040Z,9.02
2023-01-26T16:58:26.720Z,9.04
2023-01-26T17:00:55.943Z,9.04
2023-01-26T17:03:25.963Z,8.99
2023-01-26T17:05:54.534Z,8.96
2023-01-26T17:08:22.969Z,8.97
2023-01-26T17:11:01.465Z,8.94
2023-01-26T17:13:31.542Z,8.94
2023-01-26T17:16:00.200Z,8.93
2023-01-26T17:18:33.575Z,8.90
2023-01-26T17:21:05.247Z,8.90
2023-01-26T17:23:33.669Z,8.86
2023-01-26T17:26:02.290Z,8.88
2023-01-26T17:28:31.076Z,8.87
2023-01-26T17:31:01.246Z,8.85
2023-01-26T17:33:31.580Z,8.87
2023-01-26T17:36:04.200Z,8.88
2023-01-26T17:38:32.563Z,8.79
2023-01-26T17:41:01.402Z,8.83
2023-01-26T17:43:30.341Z,8.85
2023-01-26T17:46:06.888Z,8.83
2023-01-26T17:48:38.004Z,8.83
2023-01-26T17:51:07.963Z,8.87
2023-01-26T17:53:39.345Z,8.88
2023-01-26T17:56:08.675Z,8.88
2023-01-26T17:58:37.606Z,8.85
2023-01-26T18:01:06.747Z,8.85
2023-01-26T18:03:37.608Z,8.87
2023-01-26T18:06:07.265Z,8.87
2023-01-26T18:08:35.763Z,8.86
2023-01-26T18:11:08.024Z,8.90
2023-01-26T18:13:37.002Z,8.89
2023-01-26T18:16:07.105Z,8.92
2023-01-26T18:18:37.509Z,8.87
2023-01-26T18:21:13.144Z,8.86
2023-01-26T18:23:48.626Z,8.85
2023-01-26T18:26:19.894Z,8.86
2023-01-26T18:28:49.240Z,8.85
2023-01-26T18:31:20.131Z,8.85
2023-01-26T18:33:49.900Z,8.88
2023-01-26T18:36:20.031Z,8.89
2023-01-26T18:38:51.710Z,8.88
2023-01-26T18:41:21.293Z,8.88
2023-01-26T18:43:52.358Z,8.92
2023-01-26T18:46:21.134Z,8.93
2023-01-26T18:48:53.931Z,8.94
2023-01-26T18:51:22.790Z,8.92
2023-01-26T18:53:51.094Z,8.91
2023-01-26T18:56:19.449Z,8.93
2023-01-26T18:58:47.731Z,8.93
2023-01-26T19:01:18.938Z,8.91
2023-01-26T19:03:47.882Z,8.90
2023-01-26T19:06:19.875Z,8.89
2023-01-26T19:08:49.198Z,8.90
2023-01-26T19:11:17.507Z,8.87
2023-01-26T19:13:48.921Z,8.87
2023-01-26T19:16:17.264Z,8.85
2023-01-26T19:18:45.584Z,8.86
2023-01-26T19:21:13.984Z,8.88
2023-01-26T19:23:43.680Z,8.83
2023-01-26T19:26:12.964Z,8.82
2023-01-26T19:28:42.293Z,8.85
2023-01-26T19:31:11.496Z,8.85
2023-01-26T19:33:40.248Z,8.88
2023-01-26T19:36:09.965Z,8.86
2023-01-26T19:38:40.221Z,8.85
2023-01-26T19:41:09.925Z,8.85
2023-01-26T19:43:38.321Z,8.85
2023-01-26T19:46:08.529Z,8.85
2023-01-26T19:48:36.873Z,8.85
2023-01-26T19:51:08.279Z,8.85
2023-01-26T19:53:39.335Z,8.85
2023-01-26T19:56:10.800Z,8.85
2023-01-26T19:58:40.082Z,8.86
2023-01-26T20:01:10.066Z,8.81
2023-01-26T20:03:39.447Z,8.81
2023-01-26T20:06:15.085Z,8.79
2023-01-26T20:08:43.385Z,8.77
2023-01-26T20:11:13.081Z,8.82
2023-01-26T20:13:41.438Z,8.80
2023-01-26T20:16:11.788Z,8.80
2023-01-26T20:18:40.102Z,8.79
2023-01-26T20:21:08.540Z,8.76
2023-01-26T20:23:45.607Z,8.72
2023-01-26T20:26:21.431Z,8.68
2023-01-26T20:28:49.768Z,8.64
2023-01-26T20:31:20.367Z,8.59
2023-01-26T20:33:49.960Z,8.54
2023-01-26T20:36:21.131Z,8.47
2023-01-26T20:38:50.850Z,8.41
2023-01-26T20:41:22.264Z,8.36
2023-01-26T20:43:59.934Z,8.38
2023-01-26T20:46:29.984Z,8.40
2023-01-26T20:48:58.910Z,8.44
2023-01-26T20:51:30.751Z,8.47
2023-01-26T20:53:59.436Z,8.30
2023-01-26T20:56:29.205Z,8.06
2023-01-26T20:58:58.084Z,7.95
2023-01-26T21:01:27.332Z,7.86
2023-01-26T21:03:56.164Z,7.79
2023-01-26T21:06:26.281Z,7.71
2023-01-26T21:08:56.567Z,7.64
2023-01-26T21:11:26.888Z,7.58
2023-01-26T21:13:58.460Z,7.50
2023-01-26T21:16:26.780Z,7.43
2023-01-26T21:18:55.986Z,7.38
2023-01-26T21:21:31.619Z,7.32
2023-01-26T21:24:00.184Z,7.26
2023-01-26T21:26:28.989Z,7.21
2023-01-26T21:29:01.376Z,7.16
2023-01-26T21:31:31.368Z,7.17
2023-01-26T21:34:00.647Z,7.24
2023-01-26T21:36:31.230Z,7.32
2023-01-26T21:39:00.922Z,7.39
2023-01-26T21:41:48.564Z,7.40
2023-01-26T21:44:20.342Z,7.41
2023-01-26T21:46:50.555Z,7.46
2023-01-26T21:49:19.302Z,7.49
2023-01-26T21:52:05.451Z,7.51
2023-01-26T21:54:34.325Z,7.56
2023-01-26T21:57:03.679Z,7.54
2023-01-26T21:59:32.330Z,7.51
2023-01-26T22:02:00.645Z,7.53
2023-01-26T22:04:31.814Z,7.56
2023-01-26T22:07:00.299Z,7.52
2023-01-26T22:09:30.078Z,7.49
2023-01-26T22:11:58.434Z,7.48
2023-01-26T22:14:27.135Z,7.43
2023-01-26T22:16:56.879Z,7.43
2023-01-26T22:19:26.091Z,7.38
2023-01-26T22:21:54.420Z,7.35
2023-01-26T22:24:22.897Z,7.28
2023-01-26T22:26:51.357Z,7.23
2023-01-26T22:29:19.717Z,7.20
2023-01-26T22:31:48.234Z,7.15
2023-01-26T22:34:18.027Z,7.10
2023-01-26T22:36:46.497Z,7.04
2023-01-26T22:39:14.815Z,6.97
2023-01-26T22:41:43.173Z,6.91
2023-01-26T22:44:11.564Z,6.82
2023-01-26T22:46:39.913Z,6.80
2023-01-26T22:49:08.294Z,6.78
2023-01-26T22:51:38.163Z,6.84
2023-01-26T22:54:07.060Z,6.90
2023-01-26T22:56:35.563Z,6.96
2023-01-26T22:59:03.858Z,7.04
2023-01-26T23:01:33.788Z,7.13
2023-01-26T23:04:03.009Z,7.18
2023-01-26T23:06:31.460Z,7.14
2023-01-26T23:09:04.855Z,7.19
2023-01-26T23:11:33.225Z,7.23
2023-01-26T23:14:02.063Z,7.31
2023-01-26T23:16:30.720Z,7.34
2023-01-26T23:19:00.542Z,7.35
2023-01-26T23:21:30.278Z,7.32
2023-01-26T23:24:00.548Z,7.29
2023-01-26T23:26:28.991Z,7.26
2023-01-26T23:28:57.370Z,7.29
2023-01-26T23:31:25.761Z,7.31
2023-01-26T23:33:54.177Z,7.32
2023-01-26T23:36:22.575Z,7.35
2023-01-26T23:38:51.254Z,7.36
2023-01-26T23:41:21.078Z,7.39
2023-01-26T23:43:49.422Z,7.40
2023-01-26T23:46:17.747Z,7.42
2023-01-26T23:48:46.092Z,7.46
2023-01-26T23:51:14.682Z,7.49
2023-01-26T23:53:43.394Z,7.47
2023-01-26T23:56:15.574Z,7.42
2023-01-26T23:58:45.902Z,7.46
